createdAt,value
2023-06-29T00:00:16.788Z,79.71
2023-06-29T00:02:43.494Z,80.00
2023-06-29T00:05:10.740Z,80.24
2023-06-29T00:07:37.392Z,80.38
2023-06-29T00:10:04.083Z,80.36
2023-06-29T00:12:30.668Z,80.48
2023-06-29T00:14:57.215Z,80.67
2023-06-29T00:17:23.884Z,80.64
2023-06-29T00:19:50.514Z,80.38
2023-06-29T00:22:17.898Z,80.46
2023-06-29T00:24:44.485Z,81.07
2023-06-29T00:27:14.157Z,80.69
2023-06-29T00:29:42.154Z,80.90
2023-06-29T00:32:12.464Z,80.93
2023-06-29T00:34:39.030Z,81.41
2023-06-29T00:37:05.731Z,81.33
2023-06-29T00:39:32.743Z,81.39
2023-06-29T00:41:59.316Z,81.34
2023-06-29T00:44:25.894Z,81.35
2023-06-29T00:46:53.047Z,81.44
2023-06-29T00:49:19.978Z,81.69
2023-06-29T00:51:48.853Z,81.79
2023-06-29T00:54:15.455Z,82.06
2023-06-29T00:56:42.051Z,81.60
2023-06-29T00:59:08.638Z,81.59
2023-06-29T01:01:35.169Z,81.69
2023-06-29T01:04:01.792Z,82.01
2023-06-29T01:06:29.701Z,81.81
2023-06-29T01:08:56.284Z,82.33
2023-06-29T01:11:22.841Z,82.55
2023-06-29T01:13:49.419Z,82.71
2023-06-29T01:16:15.954Z,82.41
2023-06-29T01:18:43.924Z,82.29
2023-06-29T01:21:10.503Z,82.99
2023-06-29T01:23:37.525Z,83.08
2023-06-29T01:26:04.864Z,83.24
2023-06-29T01:28:31.458Z,83.16
2023-06-29T01:30:58.003Z,83.27
2023-06-29T01:33:24.604Z,83.38
2023-06-29T01:35:54.772Z,83.28
2023-06-29T01:38:24.621Z,83.08
2023-06-29T01:40:51.197Z,83.38
2023-06-29T01:43:18.385Z,83.75
2023-06-29T01:45:45.148Z,83.43
2023-06-29T01:48:12.054Z,83.58
2023-06-29T01:50:38.702Z,83.54
2023-06-29T01:53:05.240Z,83.37
2023-06-29T01:55:31.809Z,83.62
2023-06-29T01:57:58.451Z,83.76
2023-06-29T02:00:25.071Z,83.47
2023-06-29T02:02:51.776Z,83.42
2023-06-29T02:05:18.456Z,83.47
2023-06-29T02:07:45.016Z,84.01
2023-06-29T02:10:11.643Z,83.86
2023-06-29T02:12:41.392Z,83.80
2023-06-29T02:15:08.436Z,83.84
2023-06-29T02:17:35.001Z,84.42
2023-06-29T02:20:01.580Z,84.77
2023-06-29T02:22:28.164Z,84.90
2023-06-29T02:24:54.725Z,84.74
2023-06-29T02:27:21.386Z,85.18
2023-06-29T02:29:47.983Z,84.77
2023-06-29T02:32:14.600Z,85.36
2023-06-29T02:34:41.198Z,84.88
2023-06-29T02:37:07.741Z,84.21
2023-06-29T02:39:34.280Z,84.91
2023-06-29T02:42:00.868Z,85.42
2023-06-29T02:44:27.426Z,84.93
2023-06-29T02:46:54.027Z,85.13
2023-06-29T02:49:20.612Z,84.54
2023-06-29T02:51:47.144Z,85.56
2023-06-29T02:54:13.762Z,85.65
2023-06-29T02:56:40.395Z,85.32
2023-06-29T02:59:06.973Z,85.79
2023-06-29T03:01:33.621Z,85.73
2023-06-29T03:04:00.223Z,85.60
2023-06-29T03:06:26.778Z,85.85
2023-06-29T03:08:53.367Z,85.98
2023-06-29T03:11:19.993Z,86.35
2023-06-29T03:13:46.632Z,86.23
2023-06-29T03:16:13.258Z,86.53
2023-06-29T03:18:39.839Z,86.67
2023-06-29T03:21:16.196Z,86.00
2023-06-29T03:23:44.686Z,86.18
2023-06-29T03:26:11.331Z,85.90
2023-06-29T03:28:37.854Z,86.08
2023-06-29T03:31:04.528Z,86.08
2023-06-29T03:33:31.152Z,85.97
2023-06-29T03:35:57.738Z,86.42
2023-06-29T03:38:24.329Z,86.02
2023-06-29T03:40:50.894Z,85.95
2023-06-29T03:43:17.475Z,85.60
2023-06-29T03:45:44.240Z,86.11
2023-06-29T03:48:11.106Z,85.97
2023-06-29T03:50:37.757Z,85.95
2023-06-29T03:53:04.391Z,86.14
2023-06-29T03:55:31.009Z,86.26
2023-06-29T03:57:57.646Z,85.56
2023-06-29T04:00:24.450Z,85.68
2023-06-29T04:02:51.041Z,86.01
2023-06-29T04:05:17.713Z,86.20
2023-06-29T04:07:44.251Z,86.38
2023-06-29T04:10:10.940Z,86.08
2023-06-29T04:12:37.519Z,86.08
2023-06-29T04:15:04.278Z,86.52
2023-06-29T04:17:30.912Z,86.67
2023-06-29T04:19:57.548Z,85.84
2023-06-29T04:22:24.162Z,86.04
2023-06-29T04:24:51.687Z,86.71
2023-06-29T04:27:18.256Z,86.44
2023-06-29T04:29:44.846Z,86.16
2023-06-29T04:32:11.447Z,87.02
2023-06-29T04:34:37.992Z,86.63
2023-06-29T04:37:04.748Z,86.72
2023-06-29T04:39:31.352Z,86.87
2023-06-29T04:41:57.928Z,87.20
2023-06-29T04:44:24.543Z,86.89
2023-06-29T04:46:51.174Z,86.63
2023-06-29T04:49:17.810Z,87.08
2023-06-29T04:51:44.545Z,86.94
2023-06-29T04:54:11.157Z,87.08
2023-06-29T04:56:37.684Z,86.47
2023-06-29T04:59:04.313Z,86.59
2023-06-29T05:01:30.981Z,86.59
2023-06-29T05:03:59.277Z,86.60
2023-06-29T05:06:27.256Z,86.13
2023-06-29T05:08:53.845Z,86.23
2023-06-29T05:11:20.385Z,86.47
2023-06-29T05:13:46.952Z,86.24
2023-06-29T05:16:13.536Z,86.41
2023-06-29T05:18:40.229Z,86.02
2023-06-29T05:21:06.758Z,86.32
2023-06-29T05:23:33.352Z,86.31
2023-06-29T05:25:59.994Z,87.08
2023-06-29T05:28:26.569Z,87.07
2023-06-29T05:30:53.209Z,86.93
2023-06-29T05:33:19.762Z,86.12
2023-06-29T05:35:46.616Z,86.42
2023-06-29T05:38:13.375Z,86.60
2023-06-29T05:40:39.914Z,86.28
2023-06-29T05:43:06.487Z,86.76
2023-06-29T05:45:33.105Z,86.57
2023-06-29T05:47:59.763Z,87.07
2023-06-29T05:50:26.418Z,86.78
2023-06-29T05:52:53.014Z,87.02
2023-06-29T05:55:19.663Z,87.14
2023-06-29T05:57:46.225Z,87.02
2023-06-29T06:00:13.310Z,87.11
2023-06-29T06:02:40.662Z,86.55
2023-06-29T06:05:07.791Z,86.60
2023-06-29T06:07:34.655Z,86.21
2023-06-29T06:10:01.356Z,86.23
2023-06-29T06:12:27.933Z,86.63
2023-06-29T06:14:54.549Z,86.44
2023-06-29T06:17:21.131Z,86.37
2023-06-29T06:19:47.728Z,86.30
2023-06-29T06:22:14.388Z,86.26
2023-06-29T06:24:41.004Z,85.68
2023-06-29T06:27:07.565Z,85.69
2023-06-29T06:29:34.387Z,85.84
2023-06-29T06:32:01.054Z,85.60
2023-06-29T06:34:27.653Z,84.86
2023-06-29T06:36:54.233Z,84.47
2023-06-29T06:39:20.809Z,84.38
2023-06-29T06:41:47.387Z,84.11
2023-06-29T06:44:13.995Z,83.86
2023-06-29T06:46:40.609Z,84.06
2023-06-29T06:49:07.209Z,84.08
2023-06-29T06:51:33.796Z,83.90
2023-06-29T06:54:00.431Z,84.09
2023-06-29T06:56:26.988Z,83.62
2023-06-29T06:58:53.629Z,83.52
2023-06-29T07:01:22.390Z,83.17
2023-06-29T07:03:49.166Z,83.16
2023-06-29T07:06:15.752Z,83.39
2023-06-29T07:08:42.349Z,83.26
2023-06-29T07:11:08.965Z,82.72
2023-06-29T07:13:35.548Z,82.08
2023-06-29T07:16:02.172Z,81.76
2023-06-29T07:18:30.829Z,81.84
2023-06-29T07:25:56.241Z,80.93
2023-06-29T07:28:22.867Z,80.22
2023-06-29T07:30:49.546Z,79.73
2023-06-29T07:33:16.196Z,79.95
2023-06-29T07:35:43.004Z,79.36
2023-06-29T07:38:09.771Z,79.59
2023-06-29T07:40:36.345Z,79.38
2023-06-29T07:43:02.949Z,79.00
2023-06-29T07:45:29.553Z,79.14
2023-06-29T07:47:56.189Z,79.01
2023-06-29T07:50:22.953Z,78.38
2023-06-29T07:52:49.575Z,77.36
2023-06-29T07:55:16.212Z,78.05
2023-06-29T08:00:12.856Z,78.04
2023-06-29T08:02:39.441Z,78.11
2023-06-29T08:07:35.967Z,77.48
2023-06-29T08:10:02.610Z,77.84
2023-06-29T08:12:29.207Z,77.75
2023-06-29T08:14:55.774Z,77.58
2023-06-29T08:17:22.365Z,77.82
2023-06-29T08:19:48.973Z,77.12
2023-06-29T08:22:15.648Z,77.25
2023-06-29T08:24:42.269Z,77.19
2023-06-29T08:27:09.335Z,77.20
2023-06-29T08:29:35.864Z,77.06
2023-06-29T08:32:05.184Z,77.35
2023-06-29T08:34:31.787Z,76.90
2023-06-29T08:36:58.433Z,75.54
2023-06-29T08:39:25.030Z,75.71
2023-06-29T08:41:51.875Z,75.97
2023-06-29T08:44:18.601Z,74.96
2023-06-29T08:46:45.276Z,74.82
2023-06-29T08:49:11.920Z,74.45
2023-06-29T08:51:40.078Z,73.68
2023-06-29T08:54:07.868Z,73.87
2023-06-29T08:56:34.810Z,73.82
2023-06-29T08:59:01.440Z,73.56
2023-06-29T09:01:28.044Z,73.21
2023-06-29T09:03:54.743Z,70.06
2023-06-29T09:06:21.427Z,70.03
2023-06-29T09:08:48.014Z,70.02
2023-06-29T09:11:14.669Z,68.96
2023-06-29T09:13:41.214Z,68.24
2023-06-29T09:16:07.851Z,68.05
2023-06-29T09:18:34.514Z,68.79
2023-06-29T09:21:01.267Z,67.78
2023-06-29T09:23:27.995Z,67.47
2023-06-29T09:25:55.402Z,68.87
2023-06-29T09:28:22.018Z,67.57
2023-06-29T09:30:48.585Z,67.73
2023-06-29T09:33:15.320Z,68.62
2023-06-29T09:35:45.146Z,68.27
2023-06-29T09:38:11.812Z,67.52
2023-06-29T09:40:51.912Z,68.37
2023-06-29T09:43:22.574Z,68.42
2023-06-29T09:45:49.147Z,68.37
2023-06-29T09:50:52.227Z,69.34
2023-06-29T09:53:30.870Z,69.26
2023-06-29T09:55:58.835Z,69.82
2023-06-29T09:58:26.159Z,69.59
2023-06-29T10:00:52.814Z,69.76
2023-06-29T10:03:19.619Z,70.30
2023-06-29T10:05:46.746Z,70.22
2023-06-29T10:08:13.330Z,69.44
2023-06-29T10:10:39.853Z,69.52
2023-06-29T10:13:06.775Z,69.80
2023-06-29T10:15:33.361Z,69.98
2023-06-29T10:18:05.529Z,71.37
2023-06-29T10:20:32.558Z,71.93
2023-06-29T10:22:59.138Z,71.78
2023-06-29T10:25:25.735Z,72.03
2023-06-29T10:27:52.355Z,72.15
2023-06-29T10:30:19.616Z,71.15
2023-06-29T10:32:49.186Z,71.87
2023-06-29T10:35:15.828Z,73.12
2023-06-29T10:37:43.797Z,72.72
2023-06-29T10:40:14.141Z,71.82
2023-06-29T10:42:40.626Z,72.31
2023-06-29T10:45:10.099Z,71.88
2023-06-29T10:47:36.800Z,71.97
2023-06-29T10:50:12.501Z,73.03
2023-06-29T10:52:39.373Z,72.97
2023-06-29T10:55:20.958Z,72.91
2023-06-29T10:57:48.998Z,73.24
2023-06-29T11:00:16.749Z,73.80
2023-06-29T11:02:44.999Z,73.65
2023-06-29T11:05:14.799Z,73.40
2023-06-29T11:07:42.445Z,73.56
2023-06-29T11:10:09.610Z,73.87
2023-06-29T11:12:39.540Z,72.32
2023-06-29T11:15:20.586Z,73.48
2023-06-29T11:17:49.727Z,73.71
2023-06-29T11:20:17.269Z,72.38
2023-06-29T11:22:44.525Z,72.70
2023-06-29T11:25:17.148Z,72.75
2023-06-29T11:27:44.337Z,73.68
2023-06-29T11:30:11.291Z,73.69
2023-06-29T11:32:38.511Z,74.02
2023-06-29T11:35:06.625Z,74.30
2023-06-29T11:37:33.540Z,74.86
2023-06-29T11:40:00.175Z,75.24
2023-06-29T11:42:26.812Z,75.92
2023-06-29T11:45:06.078Z,75.75
2023-06-29T11:47:33.870Z,75.65
2023-06-29T11:50:01.243Z,75.51
2023-06-29T11:52:28.478Z,74.88
2023-06-29T11:54:55.056Z,74.32
2023-06-29T11:57:21.694Z,74.58
2023-06-29T11:59:48.254Z,73.73
2023-06-29T12:02:15.485Z,73.87
2023-06-29T12:04:57.777Z,73.82
2023-06-29T12:07:42.046Z,73.89
2023-06-29T12:10:19.637Z,74.77
2023-06-29T12:12:47.712Z,74.44
2023-06-29T12:15:14.872Z,74.77
2023-06-29T12:20:21.927Z,74.77
2023-06-29T12:22:50.766Z,75.18
2023-06-29T12:25:18.580Z,75.76
2023-06-29T12:27:46.037Z,76.26
2023-06-29T12:30:13.753Z,76.31
2023-06-29T12:32:40.385Z,76.77
2023-06-29T12:35:07.178Z,77.06
2023-06-29T12:37:34.045Z,76.57
2023-06-29T12:40:00.667Z,76.54
2023-06-29T12:42:27.270Z,77.07
2023-06-29T12:44:53.906Z,76.67
2023-06-29T12:47:20.553Z,76.60
2023-06-29T12:49:47.576Z,76.63
2023-06-29T12:52:17.055Z,77.20
2023-06-29T12:54:43.664Z,76.49
2023-06-29T12:57:10.383Z,76.29
2023-06-29T12:59:37.009Z,76.58
2023-06-29T13:02:04.088Z,76.88
2023-06-29T13:04:33.301Z,76.92
2023-06-29T13:07:01.773Z,76.64
2023-06-29T13:09:29.761Z,76.45
2023-06-29T13:11:56.394Z,76.34
2023-06-29T13:14:23.065Z,76.42
2023-06-29T13:16:49.764Z,75.62
2023-06-29T13:19:16.355Z,75.53
2023-06-29T13:21:43.022Z,75.47
2023-06-29T13:24:09.715Z,75.24
2023-06-29T13:26:36.435Z,75.62
2023-06-29T13:29:03.058Z,76.14
2023-06-29T13:31:29.665Z,76.50
2023-06-29T13:33:56.564Z,76.71
2023-06-29T13:36:23.161Z,76.56
2023-06-29T13:38:50.083Z,76.95
2023-06-29T13:41:19.377Z,77.27
2023-06-29T13:43:46.026Z,77.50
2023-06-29T13:46:12.590Z,77.45
2023-06-29T13:48:39.344Z,77.23
2023-06-29T13:51:06.008Z,77.22
2023-06-29T13:53:32.605Z,76.57
2023-06-29T13:55:59.229Z,76.46
2023-06-29T13:58:25.859Z,76.56
2023-06-29T14:00:52.452Z,76.50
2023-06-29T14:03:19.195Z,75.21
2023-06-29T14:05:46.076Z,75.17
2023-06-29T14:08:13.061Z,74.11
2023-06-29T14:10:39.659Z,73.68
2023-06-29T14:13:06.220Z,73.73
2023-06-29T14:15:32.833Z,73.52
2023-06-29T14:17:59.455Z,72.81
2023-06-29T14:20:26.137Z,72.74
2023-06-29T14:22:52.734Z,73.22
2023-06-29T14:25:19.310Z,73.12
2023-06-29T14:27:45.854Z,72.65
2023-06-29T14:30:12.933Z,72.37
2023-06-29T14:32:39.588Z,71.98
2023-06-29T14:35:06.695Z,72.42
2023-06-29T14:37:33.284Z,72.42
2023-06-29T14:40:00.317Z,72.39
2023-06-29T14:42:26.903Z,72.42
2023-06-29T14:44:53.505Z,72.11
2023-06-29T14:47:20.292Z,72.04
2023-06-29T14:49:46.956Z,71.89
2023-06-29T14:52:13.524Z,72.31
2023-06-29T14:54:40.226Z,72.31
2023-06-29T14:57:06.861Z,72.50
2023-06-29T14:59:34.352Z,72.87
2023-06-29T15:02:00.961Z,73.23
2023-06-29T15:04:27.524Z,72.55
2023-06-29T15:06:54.254Z,72.96
2023-06-29T15:09:20.884Z,72.62
2023-06-29T15:11:47.517Z,72.87
2023-06-29T15:14:14.180Z,73.41
2023-06-29T15:16:41.046Z,73.31
2023-06-29T15:19:07.870Z,72.86
2023-06-29T15:21:34.593Z,73.02
2023-06-29T15:24:01.192Z,73.27
2023-06-29T15:26:27.836Z,73.92
2023-06-29T15:28:54.527Z,74.24
2023-06-29T15:31:21.194Z,74.02
2023-06-29T15:33:47.817Z,74.95
2023-06-29T15:36:14.437Z,74.44
2023-06-29T15:38:41.111Z,74.56
2023-06-29T15:41:07.718Z,74.61
2023-06-29T15:43:34.356Z,74.18
2023-06-29T15:46:00.958Z,73.80
2023-06-29T15:48:27.595Z,69.44
2023-06-29T15:50:54.295Z,67.98
2023-06-29T15:53:20.934Z,68.52
2023-06-29T15:55:47.781Z,68.12
2023-06-29T15:58:14.596Z,68.88
2023-06-29T16:00:41.158Z,70.08
2023-06-29T16:03:07.886Z,70.91
2023-06-29T16:05:34.562Z,71.45
2023-06-29T16:08:01.220Z,71.09
2023-06-29T16:10:27.875Z,71.03
2023-06-29T16:12:54.426Z,70.73
2023-06-29T16:15:21.015Z,71.69
2023-06-29T16:17:47.647Z,72.43
2023-06-29T16:20:14.273Z,71.93
2023-06-29T16:22:40.860Z,71.29
2023-06-29T16:25:08.000Z,71.44
2023-06-29T16:27:34.683Z,71.77
2023-06-29T16:30:01.292Z,70.88
2023-06-29T16:32:27.952Z,71.08
2023-06-29T16:34:54.734Z,70.24
2023-06-29T16:37:21.327Z,69.70
2023-06-29T16:39:47.932Z,69.63
2023-06-29T16:42:15.462Z,70.04
2023-06-29T16:44:42.024Z,70.11
2023-06-29T16:47:08.634Z,70.40
2023-06-29T16:49:35.207Z,68.91
2023-06-29T16:52:01.789Z,68.85
2023-06-29T16:54:28.386Z,69.13
2023-06-29T16:56:55.044Z,68.32
2023-06-29T16:59:21.705Z,68.64
2023-06-29T17:01:48.465Z,69.00
2023-06-29T17:04:15.194Z,69.41
2023-06-29T17:06:41.853Z,69.20
2023-06-29T17:09:08.417Z,69.55
2023-06-29T17:11:34.991Z,69.70
2023-06-29T17:14:01.599Z,70.55
2023-06-29T17:16:28.210Z,70.21
2023-06-29T17:18:54.882Z,70.91
2023-06-29T17:21:21.498Z,70.50
2023-06-29T17:23:48.119Z,70.97
2023-06-29T17:26:14.673Z,71.26
2023-06-29T17:28:41.278Z,71.34
2023-06-29T17:31:07.944Z,71.81
2023-06-29T17:33:49.271Z,72.10
2023-06-29T17:36:21.085Z,72.07
2023-06-29T17:38:47.648Z,73.13
2023-06-29T17:41:14.178Z,73.39
2023-06-29T17:43:40.767Z,73.51
2023-06-29T17:46:07.385Z,74.37
2023-06-29T17:48:33.993Z,74.69
2023-06-29T17:51:06.111Z,75.29
2023-06-29T17:53:32.625Z,75.59
2023-06-29T17:55:59.236Z,75.53
2023-06-29T17:58:25.757Z,75.98
2023-06-29T18:00:53.089Z,76.25
2023-06-29T18:03:20.217Z,75.86
2023-06-29T18:05:47.156Z,77.04
2023-06-29T18:08:13.983Z,77.67
2023-06-29T18:10:40.548Z,76.97
2023-06-29T18:13:07.165Z,77.17
2023-06-29T18:15:33.819Z,78.46
2023-06-29T18:18:00.499Z,78.47
2023-06-29T18:20:27.101Z,79.08
2023-06-29T18:22:53.717Z,79.83
2023-06-29T18:25:20.236Z,79.91
2023-06-29T18:27:46.794Z,81.18
2023-06-29T18:30:13.717Z,81.95
2023-06-29T18:32:40.533Z,83.16
2023-06-29T18:35:07.461Z,83.59
2023-06-29T18:37:34.046Z,84.74
2023-06-29T18:40:00.628Z,85.47
2023-06-29T18:42:27.237Z,86.23
2023-06-29T18:44:53.859Z,86.10
2023-06-29T18:47:20.512Z,87.82
2023-06-29T18:49:51.954Z,87.67
2023-06-29T18:52:19.457Z,87.58
2023-06-29T18:54:46.083Z,88.34
2023-06-29T18:57:12.697Z,89.07
2023-06-29T18:59:39.297Z,89.20
2023-06-29T19:02:06.098Z,88.78
2023-06-29T19:04:32.698Z,89.26
2023-06-29T19:06:59.523Z,89.33
2023-06-29T19:09:26.064Z,89.65
2023-06-29T19:11:52.633Z,89.75
2023-06-29T19:14:19.211Z,89.85
2023-06-29T19:16:45.791Z,89.61
2023-06-29T19:19:12.380Z,88.78
2023-06-29T19:21:47.669Z,88.40
2023-06-29T19:24:14.822Z,88.52
2023-06-29T19:26:41.398Z,87.94
2023-06-29T19:29:08.004Z,87.50
2023-06-29T19:31:35.174Z,87.70
2023-06-29T19:34:01.729Z,88.13
2023-06-29T19:36:28.327Z,88.15
2023-06-29T19:38:54.971Z,88.06
2023-06-29T19:41:21.546Z,87.83
2023-06-29T19:43:48.111Z,87.98
2023-06-29T19:46:14.731Z,88.04
2023-06-29T19:48:41.500Z,87.77
2023-06-29T19:51:08.193Z,88.10
2023-06-29T19:53:34.772Z,88.52
2023-06-29T19:56:01.430Z,88.29
2023-06-29T19:58:28.183Z,88.62
2023-06-29T20:00:54.762Z,88.88
2023-06-29T20:03:21.508Z,88.87
2023-06-29T20:05:48.352Z,88.84
2023-06-29T20:08:15.227Z,88.87
2023-06-29T20:10:41.809Z,89.05
2023-06-29T20:13:08.388Z,89.45
2023-06-29T20:15:35.023Z,89.00
2023-06-29T20:18:01.609Z,89.24
2023-06-29T20:20:28.249Z,89.58
2023-06-29T20:22:54.829Z,90.11
2023-06-29T20:25:21.434Z,90.00
2023-06-29T20:27:48.058Z,89.79
2023-06-29T20:30:14.685Z,90.10
2023-06-29T20:32:41.321Z,90.84
2023-06-29T20:35:08.111Z,91.46
2023-06-29T20:37:34.707Z,92.17
2023-06-29T20:40:01.310Z,93.70
2023-06-29T20:42:27.918Z,93.70
2023-06-29T20:44:54.467Z,93.97
2023-06-29T20:47:21.052Z,94.60
2023-06-29T20:49:47.655Z,95.67
2023-06-29T20:52:14.242Z,96.70
2023-06-29T20:54:40.862Z,97.02
2023-06-29T20:57:09.786Z,97.82
2023-06-29T20:59:36.440Z,98.38
2023-06-29T21:02:03.726Z,98.42
2023-06-29T21:04:30.506Z,99.90
2023-06-29T21:06:57.169Z,99.56
2023-06-29T21:09:23.855Z,99.90
2023-06-29T21:11:50.506Z,100.00
2023-06-29T21:14:17.158Z,100.00
2023-06-29T21:16:43.962Z,100.00
2023-06-29T21:19:10.761Z,100.00
2023-06-29T21:21:37.569Z,100.00
2023-06-29T21:24:04.357Z,100.00
2023-06-29T21:26:31.476Z,100.00
2023-06-29T21:28:58.700Z,100.00
2023-06-29T21:31:25.363Z,100.00
2023-06-29T21:33:52.094Z,100.00
2023-06-29T21:36:18.876Z,100.00
2023-06-29T21:38:50.498Z,100.00
2023-06-29T21:41:17.631Z,100.00
2023-06-29T21:43:44.204Z,100.00
2023-06-29T21:46:10.829Z,100.00
2023-06-29T21:48:37.417Z,100.00
2023-06-29T21:51:03.989Z,100.00
2023-06-29T21:53:30.539Z,100.00
2023-06-29T21:56:03.271Z,100.00
2023-06-29T21:58:39.850Z,100.00
2023-06-29T22:01:06.441Z,100.00
2023-06-29T22:03:33.024Z,100.00
2023-06-29T22:05:59.614Z,100.00
2023-06-29T22:08:26.237Z,100.00
2023-06-29T22:10:52.820Z,100.00
2023-06-29T22:13:20.631Z,100.00
2023-06-29T22:15:47.469Z,100.00
2023-06-29T22:18:14.261Z,100.00
2023-06-29T22:20:40.861Z,100.00
2023-06-29T22:23:07.463Z,100.00
2023-06-29T22:25:34.022Z,100.00
2023-06-29T22:28:00.608Z,100.00
2023-06-29T22:30:27.266Z,100.00
2023-06-29T22:32:54.542Z,100.00
2023-06-29T22:35:21.186Z,100.00
2023-06-29T22:37:47.867Z,100.00
2023-06-29T22:40:14.494Z,100.00
2023-06-29T22:42:41.086Z,100.00
2023-06-29T22:45:08.148Z,100.00
2023-06-29T22:47:34.794Z,100.00
2023-06-29T22:50:01.528Z,100.00
2023-06-29T22:52:29.266Z,100.00
2023-06-29T22:54:55.817Z,100.00
2023-06-29T22:57:22.549Z,100.00
2023-06-29T22:59:51.939Z,100.00
2023-06-29T23:02:18.632Z,100.00
2023-06-29T23:04:45.364Z,100.00
2023-06-29T23:07:12.012Z,100.00
2023-06-29T23:09:38.690Z,100.00
2023-06-29T23:12:05.544Z,100.00
2023-06-29T23:14:32.223Z,100.00
2023-06-29T23:17:01.832Z,100.00
2023-06-29T23:19:28.514Z,100.00
2023-06-29T23:21:55.105Z,100.00
2023-06-29T23:24:21.803Z,100.00
2023-06-29T23:26:48.630Z,100.00
2023-06-29T23:29:15.177Z,100.00
2023-06-29T23:31:41.828Z,100.00
2023-06-29T23:34:08.433Z,100.00
2023-06-29T23:36:34.993Z,100.00
2023-06-29T23:39:01.630Z,100.00
2023-06-29T23:41:28.279Z,100.00
2023-06-29T23:43:56.098Z,100.00
2023-06-29T23:46:22.676Z,100.00
2023-06-29T23:48:49.300Z,100.00
2023-06-29T23:51:15.879Z,100.00
2023-06-29T23:53:42.470Z,100.00
2023-06-29T23:56:09.073Z,100.00
2023-06-29T23:58:35.656Z,100.00
